sensor_id;sensor_type;location;lat;lon;timestamp;temperature;humidity
23081;DHT22;72373;50.562;8.498;2024-01-10T00:01:17;-5.20;99.90
23081;DHT22;72373;50.562;8.498;2024-01-10T00:03:43;-5.10;99.90
23081;DHT22;72373;50.562;8.498;2024-01-10T00:06:09;-5.10;99.90
23081;DHT22;72373;50.562;8.498;2024-01-10T00:08:35;-5.10;99.90
23081;DHT22;72373;50.562;8.498;2024-01-10T00:11:00;-5.10;99.90
23081;DHT22;72373;50.562;8.498;2024-01-10T00:13:26;-5.20;99.90
23081;DHT22;72373;50.562;8.498;2024-01-10T00:15:53;-5.10;99.90
23081;DHT22;72373;50.562;8.498;2024-01-10T00:18:18;-5.20;99.90
23081;DHT22;72373;50.562;8.498;2024-01-10T00:20:44;-5.20;99.90
23081;DHT22;72373;50.562;8.498;2024-01-10T00:23:09;-5.20;99.90
23081;DHT22;72373;50.562;8.498;2024-01-10T00:25:35;-5.10;99.90
23081;DHT22;72373;50.562;8.498;2024-01-10T00:28:00;-5.00;99.90
23081;DHT22;72373;50.562;8.498;2024-01-10T00:30:26;-4.90;99.90
23081;DHT22;72373;50.562;8.498;2024-01-10T00:32:51;-4.90;99.90
23081;DHT22;72373;50.562;8.498;2024-01-10T00:35:17;-5.00;99.90
23081;DHT22;72373;50.562;8.498;2024-01-10T00:37:42;-5.10;99.90
23081;DHT22;72373;50.562;8.498;2024-01-10T00:40:08;-5.20;99.90
23081;DHT22;72373;50.562;8.498;2024-01-10T00:42:34;-5.20;99.90
23081;DHT22;72373;50.562;8.498;2024-01-10T00:45:00;-5.20;99.90
23081;DHT22;72373;50.562;8.498;2024-01-10T00:47:25;-5.20;99.90
23081;DHT22;72373;50.562;8.498;2024-01-10T00:49:51;-5.20;99.90
23081;DHT22;72373;50.562;8.498;2024-01-10T00:52:16;-5.30;99.90
23081;DHT22;72373;50.562;8.498;2024-01-10T00:54:42;-5.40;99.90
23081;DHT22;72373;50.562;8.498;2024-01-10T00:57:09;-5.30;99.90
23081;DHT22;72373;50.562;8.498;2024-01-10T00:59:35;-5.30;99.90
23081;DHT22;72373;50.562;8.498;2024-01-10T01:02:00;-5.30;99.90
23081;DHT22;72373;50.562;8.498;2024-01-10T01:04:26;-5.20;99.90
23081;DHT22;72373;50.562;8.498;2024-01-10T01:06:51;-5.20;99.90
23081;DHT22;72373;50.562;8.498;2024-01-10T01:09:17;-5.20;99.90
23081;DHT22;72373;50.562;8.498;2024-01-10T01:11:43;-5.20;99.90
23081;DHT22;72373;50.562;8.498;2024-01-10T01:14:09;-5.20;99.90
23081;DHT22;72373;50.562;8.498;2024-01-10T01:16:34;-5.20;99.90
23081;DHT22;72373;50.562;8.498;2024-01-10T01:18:59;-5.20;99.90
23081;DHT22;72373;50.562;8.498;2024-01-10T01:21:25;-5.20;99.90
23081;DHT22;72373;50.562;8.498;2024-01-10T01:23:50;-5.20;99.90
23081;DHT22;72373;50.562;8.498;2024-01-10T01:26:16;-5.20;99.90
23081;DHT22;72373;50.562;8.498;2024-01-10T01:28:42;-5.20;99.90
23081;DHT22;72373;50.562;8.498;2024-01-10T01:31:07;-5.40;99.90
23081;DHT22;72373;50.562;8.498;2024-01-10T01:33:33;-5.30;99.90
23081;DHT22;72373;50.562;8.498;2024-01-10T01:35:58;-5.30;99.90
23081;DHT22;72373;50.562;8.498;2024-01-10T01:38:24;-5.40;99.90
23081;DHT22;72373;50.562;8.498;2024-01-10T01:40:49;-5.50;99.90
23081;DHT22;72373;50.562;8.498;2024-01-10T01:43:23;-5.50;99.90
23081;DHT22;72373;50.562;8.498;2024-01-10T01:45:51;-5.50;99.90
23081;DHT22;72373;50.562;8.498;2024-01-10T01:48:17;-5.50;99.90
23081;DHT22;72373;50.562;8.498;2024-01-10T01:50:44;-5.50;99.90
23081;DHT22;72373;50.562;8.498;2024-01-10T01:53:11;-5.50;99.90
23081;DHT22;72373;50.562;8.498;2024-01-10T01:55:38;-5.50;99.90
23081;DHT22;72373;50.562;8.498;2024-01-10T01:58:04;-5.60;99.90
23081;DHT22;72373;50.562;8.498;2024-01-10T02:00:29;-5.60;99.90
23081;DHT22;72373;50.562;8.498;2024-01-10T02:02:57;-5.60;99.90
23081;DHT22;72373;50.562;8.498;2024-01-10T02:05:24;-5.60;99.90
23081;DHT22;72373;50.562;8.498;2024-01-10T02:07:50;-5.60;99.90
23081;DHT22;72373;50.562;8.498;2024-01-10T02:10:15;-5.60;99.90
23081;DHT22;72373;50.562;8.498;2024-01-10T02:12:41;-5.70;99.90
23081;DHT22;72373;50.562;8.498;2024-01-10T02:15:07;-5.70;99.90
23081;DHT22;72373;50.562;8.498;2024-01-10T02:17:32;-5.70;99.90
23081;DHT22;72373;50.562;8.498;2024-01-10T02:20:11;-5.70;99.90
23081;DHT22;72373;50.562;8.498;2024-01-10T02:22:36;-5.70;99.90
23081;DHT22;72373;50.562;8.498;2024-01-10T02:25:07;-5.80;99.90
23081;DHT22;72373;50.562;8.498;2024-01-10T02:27:33;-5.70;99.90
23081;DHT22;72373;50.562;8.498;2024-01-10T02:30:01;-5.70;99.90
23081;DHT22;72373;50.562;8.498;2024-01-10T02:32:27;-5.70;99.90
23081;DHT22;72373;50.562;8.498;2024-01-10T02:34:52;-5.80;99.90
23081;DHT22;72373;50.562;8.498;2024-01-10T02:37:18;-5.70;99.90
23081;DHT22;72373;50.562;8.498;2024-01-10T02:39:43;-5.70;99.90
23081;DHT22;72373;50.562;8.498;2024-01-10T02:42:09;-5.80;99.90
23081;DHT22;72373;50.562;8.498;2024-01-10T02:44:34;-5.70;99.90
23081;DHT22;72373;50.562;8.498;2024-01-10T02:47:00;-5.80;99.90
23081;DHT22;72373;50.562;8.498;2024-01-10T02:49:25;-5.70;99.90
23081;DHT22;72373;50.562;8.498;2024-01-10T02:51:51;-5.70;99.90
23081;DHT22;72373;50.562;8.498;2024-01-10T02:54:16;-5.80;99.90
23081;DHT22;72373;50.562;8.498;2024-01-10T02:56:42;-5.80;99.90
23081;DHT22;72373;50.562;8.498;2024-01-10T02:59:07;-5.90;99.90
23081;DHT22;72373;50.562;8.498;2024-01-10T03:01:33;-6.00;99.90
23081;DHT22;72373;50.562;8.498;2024-01-10T03:03:58;-6.10;99.90
23081;DHT22;72373;50.562;8.498;2024-01-10T03:06:24;-6.20;99.90
23081;DHT22;72373;50.562;8.498;2024-01-10T03:08:50;-6.30;99.90
23081;DHT22;72373;50.562;8.498;2024-01-10T03:11:15;-6.50;99.90
23081;DHT22;72373;50.562;8.498;2024-01-10T03:13:45;-6.40;99.90
23081;DHT22;72373;50.562;8.498;2024-01-10T03:16:11;-6.40;99.90
23081;DHT22;72373;50.562;8.498;2024-01-10T03:18:37;-6.40;99.90
23081;DHT22;72373;50.562;8.498;2024-01-10T03:21:02;-6.40;99.90
23081;DHT22;72373;50.562;8.498;2024-01-10T03:23:28;-6.30;99.90
23081;DHT22;72373;50.562;8.498;2024-01-10T03:25:53;-6.30;99.90
23081;DHT22;72373;50.562;8.498;2024-01-10T03:28:19;-6.20;99.90
23081;DHT22;72373;50.562;8.498;2024-01-10T03:30:44;-6.10;99.90
23081;DHT22;72373;50.562;8.498;2024-01-10T03:33:10;-6.10;99.90
23081;DHT22;72373;50.562;8.498;2024-01-10T03:35:36;-6.00;99.90
23081;DHT22;72373;50.562;8.498;2024-01-10T03:38:01;-6.00;99.90
23081;DHT22;72373;50.562;8.498;2024-01-10T03:40:27;-6.00;99.90
23081;DHT22;72373;50.562;8.498;2024-01-10T03:42:52;-5.90;99.90
23081;DHT22;72373;50.562;8.498;2024-01-10T03:45:18;-5.80;99.90
23081;DHT22;72373;50.562;8.498;2024-01-10T03:47:46;-5.70;99.90
23081;DHT22;72373;50.562;8.498;2024-01-10T03:50:16;-5.70;99.90
23081;DHT22;72373;50.562;8.498;2024-01-10T03:52:42;-5.80;99.90
23081;DHT22;72373;50.562;8.498;2024-01-10T03:55:08;-5.80;99.90
23081;DHT22;72373;50.562;8.498;2024-01-10T03:57:34;-5.80;99.90
23081;DHT22;72373;50.562;8.498;2024-01-10T04:00:00;-5.80;99.90
23081;DHT22;72373;50.562;8.498;2024-01-10T04:02:26;-5.70;99.90
23081;DHT22;72373;50.562;8.498;2024-01-10T04:04:53;-5.60;99.90
23081;DHT22;72373;50.562;8.498;2024-01-10T04:07:19;-5.60;99.90
23081;DHT22;72373;50.562;8.498;2024-01-10T04:09:44;-5.70;99.90
23081;DHT22;72373;50.562;8.498;2024-01-10T04:12:10;-5.60;99.90
23081;DHT22;72373;50.562;8.498;2024-01-10T04:14:36;-5.60;99.90
23081;DHT22;72373;50.562;8.498;2024-01-10T04:17:01;-5.60;99.90
23081;DHT22;72373;50.562;8.498;2024-01-10T04:19:28;-5.60;99.90
23081;DHT22;72373;50.562;8.498;2024-01-10T04:21:54;-5.60;99.90
23081;DHT22;72373;50.562;8.498;2024-01-10T04:24:19;-5.70;99.90
23081;DHT22;72373;50.562;8.498;2024-01-10T04:26:45;-5.70;99.90
23081;DHT22;72373;50.562;8.498;2024-01-10T04:29:10;-5.80;99.90
23081;DHT22;72373;50.562;8.498;2024-01-10T04:31:36;-5.70;99.90
23081;DHT22;72373;50.562;8.498;2024-01-10T04:34:02;-5.70;99.90
23081;DHT22;72373;50.562;8.498;2024-01-10T04:36:28;-5.80;99.90
23081;DHT22;72373;50.562;8.498;2024-01-10T04:38:53;-5.70;99.90
23081;DHT22;72373;50.562;8.498;2024-01-10T04:41:19;-5.80;99.90
23081;DHT22;72373;50.562;8.498;2024-01-10T04:43:45;-5.70;99.90
23081;DHT22;72373;50.562;8.498;2024-01-10T04:46:10;-5.70;99.90
23081;DHT22;72373;50.562;8.498;2024-01-10T04:48:36;-5.70;99.90
23081;DHT22;72373;50.562;8.498;2024-01-10T04:51:02;-5.70;99.90
23081;DHT22;72373;50.562;8.498;2024-01-10T04:53:28;-5.70;99.90
23081;DHT22;72373;50.562;8.498;2024-01-10T04:55:53;-5.80;99.90
23081;DHT22;72373;50.562;8.498;2024-01-10T04:58:19;-5.80;99.90
23081;DHT22;72373;50.562;8.498;2024-01-10T05:00:44;-5.90;99.90
23081;DHT22;72373;50.562;8.498;2024-01-10T05:03:10;-5.90;99.90
23081;DHT22;72373;50.562;8.498;2024-01-10T05:05:36;-5.90;99.90
23081;DHT22;72373;50.562;8.498;2024-01-10T05:08:01;-5.90;99.90
23081;DHT22;72373;50.562;8.498;2024-01-10T05:10:27;-6.00;99.90
23081;DHT22;72373;50.562;8.498;2024-01-10T05:12:53;-5.90;99.90
23081;DHT22;72373;50.562;8.498;2024-01-10T05:15:19;-6.00;99.90
23081;DHT22;72373;50.562;8.498;2024-01-10T05:17:45;-6.00;99.90
23081;DHT22;72373;50.562;8.498;2024-01-10T05:20:10;-6.00;99.90
23081;DHT22;72373;50.562;8.498;2024-01-10T05:22:36;-6.00;99.90
23081;DHT22;72373;50.562;8.498;2024-01-10T05:25:02;-6.00;99.90
23081;DHT22;72373;50.562;8.498;2024-01-10T05:27:28;-6.00;99.90
23081;DHT22;72373;50.562;8.498;2024-01-10T05:29:53;-6.10;99.90
23081;DHT22;72373;50.562;8.498;2024-01-10T05:32:19;-6.10;99.90
23081;DHT22;72373;50.562;8.498;2024-01-10T05:34:44;-6.00;99.90
23081;DHT22;72373;50.562;8.498;2024-01-10T05:37:10;-6.00;99.90
23081;DHT22;72373;50.562;8.498;2024-01-10T05:39:36;-6.00;99.90
23081;DHT22;72373;50.562;8.498;2024-01-10T05:42:01;-6.10;99.90
23081;DHT22;72373;50.562;8.498;2024-01-10T05:44:30;-6.10;99.90
23081;DHT22;72373;50.562;8.498;2024-01-10T05:46:56;-6.10;99.90
23081;DHT22;72373;50.562;8.498;2024-01-10T05:49:25;-6.10;99.90
23081;DHT22;72373;50.562;8.498;2024-01-10T05:51:50;-6.10;99.90
23081;DHT22;72373;50.562;8.498;2024-01-10T05:54:16;-6.20;99.90
23081;DHT22;72373;50.562;8.498;2024-01-10T05:56:43;-6.20;99.90
23081;DHT22;72373;50.562;8.498;2024-01-10T05:59:08;-6.20;99.90
23081;DHT22;72373;50.562;8.498;2024-01-10T06:01:36;-6.30;99.90
23081;DHT22;72373;50.562;8.498;2024-01-10T06:04:04;-6.30;99.90
23081;DHT22;72373;50.562;8.498;2024-01-10T06:06:29;-6.30;99.90
23081;DHT22;72373;50.562;8.498;2024-01-10T06:08:55;-6.40;99.90
23081;DHT22;72373;50.562;8.498;2024-01-10T06:11:20;-6.20;99.90
23081;DHT22;72373;50.562;8.498;2024-01-10T06:13:46;-6.30;99.90
23081;DHT22;72373;50.562;8.498;2024-01-10T06:16:11;-6.30;99.90
23081;DHT22;72373;50.562;8.498;2024-01-10T06:18:38;-6.30;99.90
23081;DHT22;72373;50.562;8.498;2024-01-10T06:21:04;-6.40;99.90
23081;DHT22;72373;50.562;8.498;2024-01-10T06:23:29;-6.30;99.90
23081;DHT22;72373;50.562;8.498;2024-01-10T06:25:55;-6.20;99.90
23081;DHT22;72373;50.562;8.498;2024-01-10T06:28:21;-6.20;99.90
23081;DHT22;72373;50.562;8.498;2024-01-10T06:30:47;-6.20;99.90
23081;DHT22;72373;50.562;8.498;2024-01-10T06:33:12;-6.20;99.90
23081;DHT22;72373;50.562;8.498;2024-01-10T06:35:39;-6.20;99.90
23081;DHT22;72373;50.562;8.498;2024-01-10T06:38:04;-6.20;99.90
23081;DHT22;72373;50.562;8.498;2024-01-10T06:40:30;-6.20;99.90
23081;DHT22;72373;50.562;8.498;2024-01-10T06:42:55;-6.20;99.90
23081;DHT22;72373;50.562;8.498;2024-01-10T06:45:22;-6.20;99.90
23081;DHT22;72373;50.562;8.498;2024-01-10T06:47:47;-6.20;99.90
23081;DHT22;72373;50.562;8.498;2024-01-10T06:50:13;-6.20;99.90
23081;DHT22;72373;50.562;8.498;2024-01-10T06:52:38;-6.20;99.90
23081;DHT22;72373;50.562;8.498;2024-01-10T06:55:04;-6.20;99.90
23081;DHT22;72373;50.562;8.498;2024-01-10T06:57:30;-6.20;99.90
23081;DHT22;72373;50.562;8.498;2024-01-10T06:59:56;-6.20;99.90
23081;DHT22;72373;50.562;8.498;2024-01-10T07:02:23;-6.20;99.90
23081;DHT22;72373;50.562;8.498;2024-01-10T07:04:48;-6.20;99.90
23081;DHT22;72373;50.562;8.498;2024-01-10T07:07:14;-6.40;99.90
23081;DHT22;72373;50.562;8.498;2024-01-10T07:09:40;-6.30;99.90
23081;DHT22;72373;50.562;8.498;2024-01-10T07:12:07;-6.30;99.90
23081;DHT22;72373;50.562;8.498;2024-01-10T07:14:32;-6.40;99.90
23081;DHT22;72373;50.562;8.498;2024-01-10T07:16:58;-6.40;99.90
23081;DHT22;72373;50.562;8.498;2024-01-10T07:19:23;-6.30;99.90
23081;DHT22;72373;50.562;8.498;2024-01-10T07:21:49;-6.50;99.90
23081;DHT22;72373;50.562;8.498;2024-01-10T07:24:15;-6.30;99.90
23081;DHT22;72373;50.562;8.498;2024-01-10T07:26:41;-6.30;99.90
23081;DHT22;72373;50.562;8.498;2024-01-10T07:29:06;-6.30;99.90
23081;DHT22;72373;50.562;8.498;2024-01-10T07:31:35;-6.20;99.90
23081;DHT22;72373;50.562;8.498;2024-01-10T07:34:01;-6.30;99.90
23081;DHT22;72373;50.562;8.498;2024-01-10T07:36:27;-6.30;99.90
23081;DHT22;72373;50.562;8.498;2024-01-10T07:38:52;-6.20;99.90
23081;DHT22;72373;50.562;8.498;2024-01-10T07:41:18;-5.80;99.90
23081;DHT22;72373;50.562;8.498;2024-01-10T07:46:10;-6.10;99.90
23081;DHT22;72373;50.562;8.498;2024-01-10T07:48:35;-6.00;99.90
23081;DHT22;72373;50.562;8.498;2024-01-10T07:51:01;-6.00;99.90
23081;DHT22;72373;50.562;8.498;2024-01-10T07:53:27;-6.00;99.90
23081;DHT22;72373;50.562;8.498;2024-01-10T07:55:52;-5.90;99.90
23081;DHT22;72373;50.562;8.498;2024-01-10T07:58:18;-5.90;99.90
23081;DHT22;72373;50.562;8.498;2024-01-10T08:00:43;-5.80;99.90
23081;DHT22;72373;50.562;8.498;2024-01-10T08:03:10;-5.80;99.90
23081;DHT22;72373;50.562;8.498;2024-01-10T08:05:36;-5.70;99.90
23081;DHT22;72373;50.562;8.498;2024-01-10T08:08:01;-5.70;99.90
23081;DHT22;72373;50.562;8.498;2024-01-10T08:10:27;-5.60;99.90
23081;DHT22;72373;50.562;8.498;2024-01-10T08:12:53;-5.60;99.90
23081;DHT22;72373;50.562;8.498;2024-01-10T08:15:18;-5.50;99.90
23081;DHT22;72373;50.562;8.498;2024-01-10T08:17:45;-5.50;99.90
23081;DHT22;72373;50.562;8.498;2024-01-10T08:20:10;-5.40;99.90
23081;DHT22;72373;50.562;8.498;2024-01-10T08:22:36;-5.40;99.90
23081;DHT22;72373;50.562;8.498;2024-01-10T08:25:03;-5.30;99.90
23081;DHT22;72373;50.562;8.498;2024-01-10T08:27:29;-5.30;99.90
23081;DHT22;72373;50.562;8.498;2024-01-10T08:29:55;-5.20;99.90
23081;DHT22;72373;50.562;8.498;2024-01-10T08:32:20;-5.20;99.90
23081;DHT22;72373;50.562;8.498;2024-01-10T08:34:47;-5.10;99.90
23081;DHT22;72373;50.562;8.498;2024-01-10T08:37:14;-4.80;99.90
23081;DHT22;72373;50.562;8.498;2024-01-10T08:39:40;-5.00;99.90
23081;DHT22;72373;50.562;8.498;2024-01-10T08:42:05;-4.90;99.90
23081;DHT22;72373;50.562;8.498;2024-01-10T08:44:31;-4.90;99.90
23081;DHT22;72373;50.562;8.498;2024-01-10T08:46:56;-4.90;99.90
23081;DHT22;72373;50.562;8.498;2024-01-10T08:49:22;-4.80;99.90
23081;DHT22;72373;50.562;8.498;2024-01-10T08:51:47;-4.80;99.90
23081;DHT22;72373;50.562;8.498;2024-01-10T08:54:13;-4.80;99.90
23081;DHT22;72373;50.562;8.498;2024-01-10T08:56:43;-4.70;99.90
23081;DHT22;72373;50.562;8.498;2024-01-10T08:59:10;-4.70;99.90
23081;DHT22;72373;50.562;8.498;2024-01-10T09:01:36;-4.70;99.90
23081;DHT22;72373;50.562;8.498;2024-01-10T09:04:04;-4.60;99.90
23081;DHT22;72373;50.562;8.498;2024-01-10T09:06:31;-4.60;99.90
23081;DHT22;72373;50.562;8.498;2024-01-10T09:08:57;-4.60;99.90
23081;DHT22;72373;50.562;8.498;2024-01-10T09:11:22;-4.50;99.90
23081;DHT22;72373;50.562;8.498;2024-01-10T09:13:48;-4.40;99.90
23081;DHT22;72373;50.562;8.498;2024-01-10T09:16:14;-4.40;99.90
23081;DHT22;72373;50.562;8.498;2024-01-10T09:18:40;-4.30;99.90
23081;DHT22;72373;50.562;8.498;2024-01-10T09:21:06;-4.10;99.90
23081;DHT22;72373;50.562;8.498;2024-01-10T09:23:31;-4.30;99.90
23081;DHT22;72373;50.562;8.498;2024-01-10T09:25:57;-4.10;99.90
23081;DHT22;72373;50.562;8.498;2024-01-10T09:28:22;-4.10;99.90
23081;DHT22;72373;50.562;8.498;2024-01-10T09:30:48;-4.00;99.90
23081;DHT22;72373;50.562;8.498;2024-01-10T09:33:14;-3.90;99.90
23081;DHT22;72373;50.562;8.498;2024-01-10T09:35:40;-3.80;99.90
23081;DHT22;72373;50.562;8.498;2024-01-10T09:38:05;-3.80;99.90
23081;DHT22;72373;50.562;8.498;2024-01-10T09:40:31;-3.70;99.90
23081;DHT22;72373;50.562;8.498;2024-01-10T09:42:57;-3.50;99.90
23081;DHT22;72373;50.562;8.498;2024-01-10T09:45:23;-3.70;99.90
23081;DHT22;72373;50.562;8.498;2024-01-10T09:47:54;-3.60;99.90
23081;DHT22;72373;50.562;8.498;2024-01-10T09:52:51;-3.30;99.90
23081;DHT22;72373;50.562;8.498;2024-01-10T09:55:23;-3.10;99.90
23081;DHT22;72373;50.562;8.498;2024-01-10T09:57:48;-2.90;99.90
23081;DHT22;72373;50.562;8.498;2024-01-10T10:00:15;-2.60;99.90
23081;DHT22;72373;50.562;8.498;2024-01-10T10:02:41;-2.40;99.90
23081;DHT22;72373;50.562;8.498;2024-01-10T10:05:15;-2.40;99.90
23081;DHT22;72373;50.562;8.498;2024-01-10T10:07:51;-2.10;99.90
23081;DHT22;72373;50.562;8.498;2024-01-10T10:10:18;-2.20;99.90
23081;DHT22;72373;50.562;8.498;2024-01-10T10:12:47;-2.00;99.90
23081;DHT22;72373;50.562;8.498;2024-01-10T10:15:15;-1.60;99.90
23081;DHT22;72373;50.562;8.498;2024-01-10T10:17:45;-1.30;99.90
23081;DHT22;72373;50.562;8.498;2024-01-10T10:20:30;-0.90;99.90
23081;DHT22;72373;50.562;8.498;2024-01-10T10:23:02;-0.10;99.90
23081;DHT22;72373;50.562;8.498;2024-01-10T10:25:33;0.10;99.90
23081;DHT22;72373;50.562;8.498;2024-01-10T10:27:59;0.90;99.90
23081;DHT22;72373;50.562;8.498;2024-01-10T10:30:26;1.90;99.90
23081;DHT22;72373;50.562;8.498;2024-01-10T10:32:51;2.50;99.90
23081;DHT22;72373;50.562;8.498;2024-01-10T10:35:18;3.00;99.90
23081;DHT22;72373;50.562;8.498;2024-01-10T10:37:46;3.50;99.90
23081;DHT22;72373;50.562;8.498;2024-01-10T10:40:12;3.50;99.90
23081;DHT22;72373;50.562;8.498;2024-01-10T10:42:40;3.20;99.90
23081;DHT22;72373;50.562;8.498;2024-01-10T10:45:09;3.10;99.90
23081;DHT22;72373;50.562;8.498;2024-01-10T10:47:37;3.50;99.90
23081;DHT22;72373;50.562;8.498;2024-01-10T10:50:05;3.70;99.90
23081;DHT22;72373;50.562;8.498;2024-01-10T10:52:31;3.60;99.90
23081;DHT22;72373;50.562;8.498;2024-01-10T10:54:58;3.30;99.90
23081;DHT22;72373;50.562;8.498;2024-01-10T10:57:27;2.90;99.90
23081;DHT22;72373;50.562;8.498;2024-01-10T10:59:55;3.00;99.90
23081;DHT22;72373;50.562;8.498;2024-01-10T11:02:22;3.00;99.90
23081;DHT22;72373;50.562;8.498;2024-01-10T11:04:49;3.30;99.90
23081;DHT22;72373;50.562;8.498;2024-01-10T11:07:15;3.20;99.90
23081;DHT22;72373;50.562;8.498;2024-01-10T11:09:42;3.10;99.90
23081;DHT22;72373;50.562;8.498;2024-01-10T11:15:40;2.30;99.90
23081;DHT22;72373;50.562;8.498;2024-01-10T11:18:31;1.90;99.90
23081;DHT22;72373;50.562;8.498;2024-01-10T11:21:19;1.60;99.90
23081;DHT22;72373;50.562;8.498;2024-01-10T11:23:54;1.20;99.90
23081;DHT22;72373;50.562;8.498;2024-01-10T11:26:20;0.90;99.90
23081;DHT22;72373;50.562;8.498;2024-01-10T11:28:46;0.60;99.90
23081;DHT22;72373;50.562;8.498;2024-01-10T11:31:13;0.30;99.90
23081;DHT22;72373;50.562;8.498;2024-01-10T11:33:40;-0.20;99.90
23081;DHT22;72373;50.562;8.498;2024-01-10T11:36:16;-0.10;99.90
23081;DHT22;72373;50.562;8.498;2024-01-10T11:41:21;-0.40;99.90
23081;DHT22;72373;50.562;8.498;2024-01-10T11:46:41;-0.30;99.90
23081;DHT22;72373;50.562;8.498;2024-01-10T11:49:10;0.10;99.90
23081;DHT22;72373;50.562;8.498;2024-01-10T11:51:42;0.70;99.90
23081;DHT22;72373;50.562;8.498;2024-01-10T11:54:08;1.60;99.90
23081;DHT22;72373;50.562;8.498;2024-01-10T11:56:43;2.40;99.90
23081;DHT22;72373;50.562;8.498;2024-01-10T11:59:11;2.60;99.90
23081;DHT22;72373;50.562;8.498;2024-01-10T12:01:38;2.60;99.90
23081;DHT22;72373;50.562;8.498;2024-01-10T12:04:05;2.30;99.90
23081;DHT22;72373;50.562;8.498;2024-01-10T12:06:31;2.00;99.90
23081;DHT22;72373;50.562;8.498;2024-01-10T12:08:57;1.50;99.90
23081;DHT22;72373;50.562;8.498;2024-01-10T12:11:23;1.10;99.90
23081;DHT22;72373;50.562;8.498;2024-01-10T12:13:49;1.00;99.90
23081;DHT22;72373;50.562;8.498;2024-01-10T12:16:15;1.00;99.90
23081;DHT22;72373;50.562;8.498;2024-01-10T12:18:42;1.00;99.90
23081;DHT22;72373;50.562;8.498;2024-01-10T12:21:07;1.20;99.90
23081;DHT22;72373;50.562;8.498;2024-01-10T12:23:37;0.80;99.90
23081;DHT22;72373;50.562;8.498;2024-01-10T12:26:08;0.80;99.90
23081;DHT22;72373;50.562;8.498;2024-01-10T12:28:35;0.70;99.90
23081;DHT22;72373;50.562;8.498;2024-01-10T12:31:01;0.70;99.90
23081;DHT22;72373;50.562;8.498;2024-01-10T12:33:27;0.80;99.90
23081;DHT22;72373;50.562;8.498;2024-01-10T12:36:10;1.00;99.90
23081;DHT22;72373;50.562;8.498;2024-01-10T12:38:37;1.00;99.90
23081;DHT22;72373;50.562;8.498;2024-01-10T12:41:04;0.90;99.90
23081;DHT22;72373;50.562;8.498;2024-01-10T12:43:30;0.80;99.90
23081;DHT22;72373;50.562;8.498;2024-01-10T12:46:09;0.80;99.90
23081;DHT22;72373;50.562;8.498;2024-01-10T12:48:39;0.80;99.90
23081;DHT22;72373;50.562;8.498;2024-01-10T12:51:08;0.40;99.90
23081;DHT22;72373;50.562;8.498;2024-01-10T12:53:39;0.70;99.90
23081;DHT22;72373;50.562;8.498;2024-01-10T12:56:06;0.50;99.90
23081;DHT22;72373;50.562;8.498;2024-01-10T12:58:33;0.40;99.90
23081;DHT22;72373;50.562;8.498;2024-01-10T13:01:00;0.30;99.90
23081;DHT22;72373;50.562;8.498;2024-01-10T13:03:26;0.20;99.90
23081;DHT22;72373;50.562;8.498;2024-01-10T13:05:51;0.00;99.90
23081;DHT22;72373;50.562;8.498;2024-01-10T13:08:18;0.00;99.90
23081;DHT22;72373;50.562;8.498;2024-01-10T13:10:45;-0.10;99.90
23081;DHT22;72373;50.562;8.498;2024-01-10T13:13:11;-0.10;99.90
23081;DHT22;72373;50.562;8.498;2024-01-10T13:15:36;-0.30;99.90
23081;DHT22;72373;50.562;8.498;2024-01-10T13:18:02;-0.30;99.90
23081;DHT22;72373;50.562;8.498;2024-01-10T13:20:28;-0.30;99.90
23081;DHT22;72373;50.562;8.498;2024-01-10T13:22:53;-0.30;99.90
23081;DHT22;72373;50.562;8.498;2024-01-10T13:25:19;-0.30;99.90
23081;DHT22;72373;50.562;8.498;2024-01-10T13:27:52;-0.30;99.90
23081;DHT22;72373;50.562;8.498;2024-01-10T13:30:18;-0.40;99.90
23081;DHT22;72373;50.562;8.498;2024-01-10T13:32:44;-0.50;99.90
23081;DHT22;72373;50.562;8.498;2024-01-10T13:35:10;-0.50;99.90
23081;DHT22;72373;50.562;8.498;2024-01-10T13:37:35;-0.60;99.90
23081;DHT22;72373;50.562;8.498;2024-01-10T13:40:02;-0.60;99.90
23081;DHT22;72373;50.562;8.498;2024-01-10T13:42:31;-0.70;99.90
23081;DHT22;72373;50.562;8.498;2024-01-10T13:44:56;-0.70;99.90
23081;DHT22;72373;50.562;8.498;2024-01-10T13:47:22;-0.70;99.90
23081;DHT22;72373;50.562;8.498;2024-01-10T13:49:47;-0.80;99.90
23081;DHT22;72373;50.562;8.498;2024-01-10T13:52:13;-0.80;99.90
23081;DHT22;72373;50.562;8.498;2024-01-10T13:54:38;-0.80;99.90
23081;DHT22;72373;50.562;8.498;2024-01-10T13:57:04;-0.80;99.90
23081;DHT22;72373;50.562;8.498;2024-01-10T13:59:30;-0.90;99.90
23081;DHT22;72373;50.562;8.498;2024-01-10T14:01:55;-0.90;99.90
23081;DHT22;72373;50.562;8.498;2024-01-10T14:04:21;-0.90;99.90
23081;DHT22;72373;50.562;8.498;2024-01-10T14:06:48;-0.90;99.90
23081;DHT22;72373;50.562;8.498;2024-01-10T14:09:14;-0.90;99.90
23081;DHT22;72373;50.562;8.498;2024-01-10T14:11:39;-0.80;99.90
23081;DHT22;72373;50.562;8.498;2024-01-10T14:14:05;-0.80;99.90
23081;DHT22;72373;50.562;8.498;2024-01-10T14:16:30;-0.80;99.90
23081;DHT22;72373;50.562;8.498;2024-01-10T14:18:56;-0.80;99.90
23081;DHT22;72373;50.562;8.498;2024-01-10T14:21:22;-0.70;99.90
23081;DHT22;72373;50.562;8.498;2024-01-10T14:26:16;-0.80;99.90
23081;DHT22;72373;50.562;8.498;2024-01-10T14:28:42;-0.80;99.90
23081;DHT22;72373;50.562;8.498;2024-01-10T14:31:07;-0.90;99.90
23081;DHT22;72373;50.562;8.498;2024-01-10T14:33:35;-0.80;99.90
23081;DHT22;72373;50.562;8.498;2024-01-10T14:36:01;-0.80;99.90
23081;DHT22;72373;50.562;8.498;2024-01-10T14:38:26;-0.80;99.90
23081;DHT22;72373;50.562;8.498;2024-01-10T14:40:52;-0.80;99.90
23081;DHT22;72373;50.562;8.498;2024-01-10T14:43:17;-0.80;99.90
23081;DHT22;72373;50.562;8.498;2024-01-10T14:45:43;-0.80;99.90
23081;DHT22;72373;50.562;8.498;2024-01-10T14:48:09;-0.80;99.90
23081;DHT22;72373;50.562;8.498;2024-01-10T14:50:35;-0.80;99.90
23081;DHT22;72373;50.562;8.498;2024-01-10T14:53:01;-0.80;99.90
23081;DHT22;72373;50.562;8.498;2024-01-10T14:55:27;-0.80;99.90
23081;DHT22;72373;50.562;8.498;2024-01-10T14:57:54;-0.80;99.90
23081;DHT22;72373;50.562;8.498;2024-01-10T15:00:20;-0.90;99.90
23081;DHT22;72373;50.562;8.498;2024-01-10T15:02:45;-0.90;99.90
23081;DHT22;72373;50.562;8.498;2024-01-10T15:05:11;-0.90;99.90
23081;DHT22;72373;50.562;8.498;2024-01-10T15:07:37;-0.80;99.90
23081;DHT22;72373;50.562;8.498;2024-01-10T15:10:03;-0.90;99.90
23081;DHT22;72373;50.562;8.498;2024-01-10T15:12:29;-0.90;99.90
23081;DHT22;72373;50.562;8.498;2024-01-10T15:14:54;-1.00;99.90
23081;DHT22;72373;50.562;8.498;2024-01-10T15:17:20;-1.10;99.90
23081;DHT22;72373;50.562;8.498;2024-01-10T15:19:45;-1.20;99.90
23081;DHT22;72373;50.562;8.498;2024-01-10T15:22:11;-1.20;99.90
23081;DHT22;72373;50.562;8.498;2024-01-10T15:24:37;-1.30;99.90
23081;DHT22;72373;50.562;8.498;2024-01-10T15:27:03;-1.30;99.90
23081;DHT22;72373;50.562;8.498;2024-01-10T15:29:34;-1.40;99.90
23081;DHT22;72373;50.562;8.498;2024-01-10T15:31:59;-1.40;99.90
23081;DHT22;72373;50.562;8.498;2024-01-10T15:34:25;-1.50;99.90
23081;DHT22;72373;50.562;8.498;2024-01-10T15:36:51;-1.50;99.90
23081;DHT22;72373;50.562;8.498;2024-01-10T15:39:16;-1.60;99.90
23081;DHT22;72373;50.562;8.498;2024-01-10T15:41:42;-1.60;99.90
23081;DHT22;72373;50.562;8.498;2024-01-10T15:44:07;-1.60;99.90